This is the latest recevied weather packets stored in our database for station/object K3PPP. If no packets are shown the sender has not sent any weather packets the latest 10 day(s).
| Time | Temp. | Humidity | Pressure | Rain* | Wind** | Luminosity | Snow |
|---|---|---|---|---|---|---|---|
| 1777964410 | 13.89° C | 69% | 1010 hPa | 0 mm | - | 0 W/m² | - |
| 1777964107 | 13.33° C | 70% | 1010.2 hPa | 0 mm | - | 0 W/m² | - |
| 1777963803 | 13.33° C | 72% | 1010 hPa | 0 mm | - | 0 W/m² | - |
| 1777963500 | 13.33° C | 72% | 1010.1 hPa | 0 mm | - | 0 W/m² | - |
| 1777963199 | 13.33° C | 74% | 1010.1 hPa | 0 mm | - | 0 W/m² | - |
| 1777962895 | 12.78° C | 77% | 1010 hPa | 0 mm | - | 0 W/m² | - |
| 1777962591 | 11.11° C | 87% | 1010.1 hPa | 0 mm | - | 0 W/m² | - |
| 1777962288 | 11.11° C | 91% | 1010.3 hPa | 0 mm | - | 0 W/m² | - |
| 1777961985 | 11.11° C | 91% | 1010.4 hPa | 0 mm | - | 0 W/m² | - |
| 1777961683 | 11.11° C | 90% | 1010.4 hPa | 0 mm | - | 0 W/m² | - |
| 1777961381 | 11.67° C | 89% | 1010.6 hPa | 0 mm | - | 0 W/m² | - |
| 1777961077 | 12.22° C | 86% | 1010.6 hPa | 4.32 mm | - | 0 W/m² | - |
| 1777960774 | 13.33° C | 79% | 1010.7 hPa | 4.32 mm | - | 0 W/m² | - |
| 1777960470 | 14.44° C | 65% | 1010.6 hPa | 0 mm | - | 0 W/m² | - |
| 1777960167 | 14.44° C | 65% | 1010.4 hPa | 0 mm | - | 0 W/m² | - |
| 1777959864 | 14.44° C | 65% | 1010.4 hPa | 0 mm | - | 0 W/m² | - |
| 1777959562 | 14.44° C | 66% | 1010.4 hPa | 0 mm | - | 0 W/m² | - |
| 1777959259 | 14.44° C | 66% | 1010.7 hPa | 0 mm | - | 0 W/m² | - |
| 1777958956 | 14.44° C | 66% | 1010.7 hPa | 0 mm | - | 0 W/m² | - |
| 1777958653 | 14.44° C | 67% | 1010.7 hPa | 0 mm | - | 0 W/m² | - |
| 1777958350 | 13.89° C | 68% | 1010.6 hPa | 0 mm | - | 0 W/m² | - |
| 1777958047 | 14.44° C | 67% | 1010.7 hPa | 0 mm | - | 0 W/m² | - |
| 1777957745 | 14.44° C | 66% | 1010.4 hPa | 0 mm | - | 0 W/m² | - |
| 1777957443 | 14.44° C | 66% | 1010.8 hPa | 0 mm | - | 0 W/m² | - |
| 1777957140 | 14.44° C | 67% | 1010.8 hPa | 0 mm | - | 0 W/m² | - |
* Rain latest hour (hover to see other rain measurements)
** Current wind speed in m/s (hover to see current wind gust speed)